createdAt,value
2018-06-12T00:01:26.901Z,11.10
2018-06-12T00:03:58.076Z,10.45
2018-06-12T00:06:29.847Z,11.22
2018-06-12T00:09:01.884Z,12.18
2018-06-12T00:11:32.835Z,12.35
2018-06-12T00:14:04.433Z,10.10
2018-06-12T00:16:35.767Z,10.70
2018-06-12T00:19:07.198Z,11.03
2018-06-12T00:21:38.776Z,11.80
2018-06-12T00:24:10.290Z,11.83
2018-06-12T00:26:41.468Z,10.88
2018-06-12T00:29:13.028Z,10.35
2018-06-12T00:31:44.363Z,10.63
2018-06-12T00:34:15.765Z,11.12
2018-06-12T00:36:47.150Z,11.18
2018-06-12T00:39:18.547Z,10.78
2018-06-12T00:41:49.935Z,11.05
2018-06-12T00:44:21.620Z,10.95
2018-06-12T00:46:52.900Z,12.25
2018-06-12T00:49:24.450Z,10.65
2018-06-12T00:51:55.865Z,11.45
2018-06-12T00:54:27.350Z,12.03
2018-06-12T00:57:09.157Z,11.90
2018-06-12T00:59:40.520Z,15.83
2018-06-12T01:02:11.969Z,10.82
2018-06-12T01:04:43.375Z,11.88
2018-06-12T01:07:14.844Z,12.45
2018-06-12T01:09:45.999Z,11.10
2018-06-12T01:12:17.298Z,11.45
2018-06-12T01:14:49.225Z,12.03
2018-06-12T01:17:21.403Z,11.83
2018-06-12T01:19:54.021Z,13.55
2018-06-12T01:22:25.618Z,11.80
2018-06-12T01:24:57.024Z,12.28
2018-06-12T01:27:28.450Z,11.90
2018-06-12T01:29:59.788Z,12.23
2018-06-12T01:32:31.080Z,12.15
2018-06-12T01:35:02.745Z,12.05
2018-06-12T01:37:34.349Z,13.05
2018-06-12T01:40:05.720Z,13.35
2018-06-12T01:42:37.251Z,12.65
2018-06-12T01:45:08.570Z,12.03
2018-06-12T01:47:39.966Z,13.22
2018-06-12T01:50:11.641Z,12.70
2018-06-12T01:52:43.246Z,12.23
2018-06-12T01:55:15.191Z,12.65
2018-06-12T01:57:47.443Z,12.37
2018-06-12T02:00:18.787Z,12.50
2018-06-12T02:02:50.185Z,13.20
2018-06-12T02:05:21.503Z,12.82
2018-06-12T02:07:53.155Z,11.93
2018-06-12T02:10:24.625Z,13.00
2018-06-12T02:12:55.959Z,40.35
2018-06-12T02:15:27.385Z,25.08
2018-06-12T02:17:58.688Z,22.65
2018-06-12T02:20:29.945Z,16.60
2018-06-12T02:23:02.118Z,16.42
2018-06-12T02:25:34.142Z,18.25
2018-06-12T02:28:05.432Z,19.20
2018-06-12T02:30:37.430Z,11.53
2018-06-12T02:33:09.110Z,11.88
2018-06-12T02:35:40.741Z,11.03
2018-06-12T02:38:12.846Z,13.08
2018-06-12T02:40:44.191Z,12.78
2018-06-12T02:43:15.655Z,11.90
2018-06-12T02:45:47.052Z,11.90
2018-06-12T02:48:18.549Z,11.68
2018-06-12T02:50:49.844Z,10.82
2018-06-12T02:53:22.116Z,13.83
2018-06-12T02:55:53.756Z,11.20
2018-06-12T02:58:25.155Z,12.50
2018-06-12T03:00:56.746Z,11.78
2018-06-12T03:03:28.506Z,15.53
2018-06-12T03:05:59.792Z,11.33
2018-06-12T03:08:31.158Z,11.50
2018-06-12T03:11:02.817Z,10.90
2018-06-12T03:13:34.173Z,10.23
2018-06-12T03:16:05.579Z,20.25
2018-06-12T03:18:36.943Z,27.48
2018-06-12T03:21:08.783Z,11.48
2018-06-12T03:23:40.885Z,11.65
2018-06-12T03:26:12.439Z,10.65
2018-06-12T03:28:44.320Z,10.15
2018-06-12T03:31:15.443Z,11.05
2018-06-12T03:33:46.690Z,11.83
2018-06-12T03:36:18.094Z,11.43
2018-06-12T03:38:49.580Z,11.48
2018-06-12T03:41:21.632Z,11.35
2018-06-12T03:43:53.224Z,11.20
2018-06-12T03:46:24.770Z,16.25
2018-06-12T03:48:56.307Z,8.93
2018-06-12T03:51:28.238Z,14.60
2018-06-12T03:53:59.789Z,13.00
2018-06-12T03:56:31.812Z,12.05
2018-06-12T03:59:03.068Z,11.63
2018-06-12T04:01:34.379Z,22.37
2018-06-12T04:04:06.511Z,9.55
2018-06-12T04:06:38.968Z,11.38
2018-06-12T04:09:10.739Z,11.10
2018-06-12T04:11:43.111Z,13.88
2018-06-12T04:14:14.787Z,9.38
2018-06-12T04:16:45.825Z,12.10
2018-06-12T04:19:17.128Z,7.70
2018-06-12T04:21:48.700Z,11.97
2018-06-12T04:24:19.960Z,14.83
2018-06-12T04:26:51.087Z,9.45
2018-06-12T04:29:22.678Z,6.95
2018-06-12T04:31:54.900Z,8.65
2018-06-12T04:34:26.302Z,9.08
2018-06-12T04:36:57.725Z,6.78
2018-06-12T04:39:29.029Z,6.97
2018-06-12T04:42:00.626Z,15.53
2018-06-12T04:44:32.013Z,10.05
2018-06-12T04:47:03.508Z,7.08
2018-06-12T04:49:35.140Z,14.00
2018-06-12T04:52:06.961Z,14.68
2018-06-12T04:54:38.368Z,7.17
2018-06-12T04:57:10.496Z,10.00
2018-06-12T04:59:41.988Z,10.30
2018-06-12T05:02:14.242Z,8.30
2018-06-12T05:04:45.579Z,11.95
2018-06-12T05:07:16.564Z,6.37
2018-06-12T05:09:48.163Z,18.70
2018-06-12T05:12:19.948Z,11.90
2018-06-12T05:14:51.287Z,7.75
2018-06-12T05:17:22.483Z,7.90
2018-06-12T05:19:53.795Z,9.45
2018-06-12T05:22:25.192Z,7.25
2018-06-12T05:24:56.702Z,9.10
2018-06-12T05:27:28.347Z,5.22
2018-06-12T05:29:59.717Z,13.55
2018-06-12T05:32:31.092Z,7.80
2018-06-12T05:35:02.939Z,13.15
2018-06-12T05:37:34.169Z,6.05
2018-06-12T05:40:05.366Z,6.03
2018-06-12T05:42:37.080Z,5.45
2018-06-12T05:45:08.740Z,4.97
2018-06-12T05:47:41.774Z,4.72
2018-06-12T05:50:13.490Z,4.90
2018-06-12T05:52:45.376Z,4.83
2018-06-12T05:55:17.053Z,5.28
2018-06-12T05:57:48.435Z,5.78
2018-06-12T06:00:20.091Z,6.35
2018-06-12T06:02:51.561Z,4.83
2018-06-12T06:05:23.278Z,5.30
2018-06-12T06:07:55.747Z,7.97
2018-06-12T06:10:27.044Z,4.17
2018-06-12T06:12:58.173Z,4.33
2018-06-12T06:15:30.474Z,5.50
2018-06-12T06:18:01.589Z,6.62
2018-06-12T06:20:32.888Z,3.92
2018-06-12T06:23:04.170Z,8.25
2018-06-12T06:25:35.628Z,3.72
2018-06-12T06:28:07.301Z,4.25
2018-06-12T06:30:38.769Z,4.40
2018-06-12T06:33:10.696Z,4.45
2018-06-12T06:35:42.202Z,5.67
2018-06-12T06:38:13.685Z,7.97
2018-06-12T06:40:44.910Z,6.47
2018-06-12T06:43:16.505Z,4.37
2018-06-12T06:45:47.929Z,6.00
2018-06-12T06:48:19.430Z,6.65
2018-06-12T06:50:51.591Z,5.12
2018-06-12T06:53:22.903Z,4.62
2018-06-12T06:55:54.368Z,5.65
2018-06-12T06:58:25.786Z,2.98
2018-06-12T07:00:57.089Z,4.50
2018-06-12T07:03:28.062Z,6.10
2018-06-12T07:05:59.370Z,4.67
2018-06-12T07:08:30.389Z,4.70
2018-06-12T07:11:01.634Z,22.20
2018-06-12T07:13:32.910Z,6.90
2018-06-12T07:16:04.374Z,4.72
2018-06-12T07:18:35.903Z,4.90
2018-06-12T07:21:18.895Z,14.50
2018-06-12T07:23:50.356Z,7.87
2018-06-12T07:26:21.988Z,4.08
2018-06-12T07:28:53.379Z,16.37
2018-06-12T07:31:24.904Z,35.55
2018-06-12T07:33:56.245Z,10.03
2018-06-12T07:36:28.378Z,33.58
2018-06-12T07:38:59.760Z,16.37
2018-06-12T07:41:30.969Z,11.93
2018-06-12T07:44:02.581Z,11.45
2018-06-12T07:46:34.068Z,6.47
2018-06-12T07:49:05.572Z,8.30
2018-06-12T07:51:36.831Z,5.53
2018-06-12T07:54:08.701Z,6.37
2018-06-12T07:56:40.156Z,3.37
2018-06-12T07:59:11.783Z,5.28
2018-06-12T08:01:43.454Z,3.80
2018-06-12T08:04:14.983Z,2.90
2018-06-12T08:06:47.225Z,3.12
2018-06-12T08:09:18.588Z,2.30
2018-06-12T08:11:51.003Z,2.75
2018-06-12T08:14:23.165Z,4.65
2018-06-12T08:16:55.070Z,4.50
2018-06-12T08:19:26.583Z,3.17
2018-06-12T08:21:57.992Z,3.15
2018-06-12T08:24:29.320Z,2.77
2018-06-12T08:27:00.839Z,7.00
2018-06-12T08:29:31.855Z,5.35
2018-06-12T08:32:04.051Z,2.20
2018-06-12T08:34:35.299Z,4.58
2018-06-12T08:37:06.735Z,2.37
2018-06-12T08:39:38.587Z,2.80
2018-06-12T08:42:10.064Z,3.67
2018-06-12T08:44:48.636Z,1.77
2018-06-12T08:47:19.920Z,4.45
2018-06-12T08:49:51.292Z,2.75
2018-06-12T08:52:22.496Z,3.95
2018-06-12T08:54:54.556Z,2.30
2018-06-12T08:57:25.846Z,5.90
2018-06-12T08:59:57.084Z,4.35
2018-06-12T09:02:28.744Z,5.45
2018-06-12T09:04:59.916Z,4.53
2018-06-12T09:07:31.480Z,2.90
2018-06-12T09:10:02.796Z,5.58
2018-06-12T09:12:34.416Z,3.58
2018-06-12T09:15:05.685Z,1.85
2018-06-12T09:17:37.537Z,1.50
2018-06-12T09:20:09.093Z,1.50
2018-06-12T09:22:40.526Z,2.55
2018-06-12T09:25:12.495Z,1.70
2018-06-12T09:27:49.391Z,2.87
2018-06-12T09:30:20.940Z,2.90
2018-06-12T09:32:52.597Z,4.28
2018-06-12T09:35:23.867Z,4.00
2018-06-12T09:37:55.185Z,1.92
2018-06-12T09:40:26.566Z,3.58
2018-06-12T09:42:58.086Z,2.45
2018-06-12T09:45:29.596Z,2.05
2018-06-12T09:48:01.028Z,2.02
2018-06-12T10:04:44.020Z,2.62
2018-06-12T10:07:15.793Z,2.85
2018-06-12T10:09:47.060Z,2.60
2018-06-12T10:12:19.273Z,5.33
2018-06-12T10:14:50.489Z,3.37
2018-06-12T10:17:21.515Z,4.40
2018-06-12T10:19:52.828Z,2.17
2018-06-12T10:22:24.570Z,3.58
2018-06-12T10:24:55.883Z,5.22
2018-06-12T10:27:27.152Z,3.20
2018-06-12T10:29:58.523Z,5.00
2018-06-12T10:32:29.932Z,4.28
2018-06-12T10:35:00.826Z,2.80
2018-06-12T10:37:32.267Z,2.85
2018-06-12T10:40:03.575Z,3.52
2018-06-12T10:42:35.147Z,3.42
2018-06-12T10:45:06.826Z,3.42
2018-06-12T10:47:38.051Z,2.37
2018-06-12T10:50:09.380Z,2.33
2018-06-12T10:52:40.793Z,4.03
2018-06-12T10:55:12.827Z,2.60
2018-06-12T10:57:44.170Z,2.50
2018-06-12T11:00:15.556Z,2.47
2018-06-12T11:02:46.890Z,3.98
2018-06-12T11:05:18.748Z,5.62
2018-06-12T11:07:50.818Z,2.77
2018-06-12T11:10:22.136Z,4.65
2018-06-12T11:12:53.379Z,3.05
2018-06-12T11:15:25.065Z,2.62
2018-06-12T11:17:56.271Z,3.37
2018-06-12T11:20:27.525Z,3.50
2018-06-12T11:22:58.987Z,2.95
2018-06-12T11:25:30.244Z,4.55
2018-06-12T11:28:01.287Z,2.60
2018-06-12T11:30:32.724Z,3.02
2018-06-12T11:33:04.350Z,3.27
2018-06-12T11:35:35.982Z,4.58
2018-06-12T11:38:07.458Z,3.00
2018-06-12T11:40:39.765Z,2.62
2018-06-12T11:43:11.028Z,2.50
2018-06-12T11:45:43.175Z,4.25
2018-06-12T11:48:15.112Z,4.58
2018-06-12T11:50:46.479Z,2.65
2018-06-12T11:53:17.764Z,2.47
2018-06-12T11:55:49.067Z,4.00
2018-06-12T11:58:20.599Z,3.22
2018-06-12T12:00:52.103Z,2.72
2018-06-12T12:03:23.808Z,3.85
2018-06-12T12:05:55.215Z,4.80
2018-06-12T12:08:26.530Z,3.55
2018-06-12T12:10:57.787Z,2.92
2018-06-12T12:13:28.948Z,3.35
2018-06-12T12:16:00.156Z,5.35
2018-06-12T12:18:31.404Z,2.80
2018-06-12T12:21:02.802Z,4.37
2018-06-12T12:23:34.112Z,4.55
2018-06-12T12:26:05.568Z,3.40
2018-06-12T12:28:37.007Z,2.98
2018-06-12T12:31:08.511Z,4.40
2018-06-12T12:33:39.711Z,3.80
2018-06-12T12:36:11.367Z,4.80
2018-06-12T12:38:42.610Z,4.60
2018-06-12T12:41:13.985Z,4.10
2018-06-12T12:43:45.964Z,3.35
2018-06-12T12:46:17.197Z,4.58
2018-06-12T12:48:48.699Z,3.75
2018-06-12T12:51:20.059Z,2.80
2018-06-12T12:53:51.411Z,2.20
2018-06-12T12:56:22.847Z,2.45
2018-06-12T12:58:54.142Z,3.87
2018-06-12T13:01:25.574Z,3.27
2018-06-12T13:03:56.936Z,3.45
2018-06-12T13:06:28.514Z,3.22
2018-06-12T13:09:00.107Z,2.77
2018-06-12T13:11:32.300Z,2.90
2018-06-12T13:14:04.195Z,3.52
2018-06-12T13:16:36.017Z,3.00
2018-06-12T13:19:07.495Z,4.72
2018-06-12T13:21:38.687Z,4.65
2018-06-12T13:24:09.751Z,3.90
2018-06-12T13:26:41.065Z,3.60
2018-06-12T13:29:13.168Z,2.72
2018-06-12T13:31:43.801Z,3.35
2018-06-12T13:34:15.311Z,3.37
2018-06-12T13:36:47.001Z,4.80
2018-06-12T13:39:18.391Z,3.35
2018-06-12T13:41:49.091Z,3.40
2018-06-12T13:44:20.294Z,4.65
2018-06-12T13:46:51.914Z,3.45
2018-06-12T13:49:23.373Z,3.08
2018-06-12T13:51:54.680Z,2.92
2018-06-12T13:54:25.899Z,3.17
2018-06-12T13:56:57.592Z,3.65
2018-06-12T13:59:28.943Z,3.10
2018-06-12T14:02:00.187Z,2.90
2018-06-12T14:04:31.537Z,2.50
2018-06-12T14:07:02.912Z,3.05
2018-06-12T14:09:34.271Z,4.85
2018-06-12T14:12:05.680Z,3.85
2018-06-12T14:14:36.932Z,3.80
2018-06-12T14:17:08.288Z,4.00
2018-06-12T14:19:40.004Z,5.22
2018-06-12T14:22:11.295Z,3.22
2018-06-12T14:24:42.615Z,3.55
2018-06-12T14:27:14.093Z,3.83
2018-06-12T14:29:45.304Z,2.92
2018-06-12T14:32:16.733Z,3.50
2018-06-12T14:34:48.123Z,8.08
2018-06-12T14:37:19.389Z,5.75
2018-06-12T14:39:51.223Z,3.37
2018-06-12T14:42:21.947Z,5.78
2018-06-12T14:44:52.994Z,4.42
2018-06-12T14:47:24.136Z,3.30
2018-06-12T14:49:55.420Z,5.97
2018-06-12T14:52:26.616Z,4.75
2018-06-12T14:54:58.031Z,4.58
2018-06-12T14:57:29.628Z,5.00
2018-06-12T15:00:00.880Z,3.08
2018-06-12T15:02:32.239Z,3.35
2018-06-12T15:05:03.255Z,3.20
2018-06-12T15:07:34.412Z,3.37
2018-06-12T15:10:06.155Z,2.90
2018-06-12T15:12:37.690Z,4.30
2018-06-12T15:15:09.155Z,5.15
2018-06-12T15:17:40.509Z,4.03
2018-06-12T15:20:11.932Z,3.02
2018-06-12T15:22:43.323Z,5.33
2018-06-12T15:25:14.912Z,2.37
2018-06-12T15:27:46.262Z,1.90
2018-06-12T15:30:18.848Z,2.45
2018-06-12T15:32:50.023Z,2.75
2018-06-12T15:35:21.166Z,2.37
2018-06-12T15:37:53.790Z,7.50
2018-06-12T15:40:25.103Z,2.42
2018-06-12T15:42:56.773Z,6.22
2018-06-12T15:45:28.167Z,3.42
2018-06-12T15:47:59.676Z,2.65
2018-06-12T15:50:31.333Z,3.10
2018-06-12T15:53:02.765Z,3.92
2018-06-12T15:55:34.218Z,2.50
2018-06-12T15:58:05.580Z,3.10
2018-06-12T16:00:37.052Z,2.20
2018-06-12T16:03:08.544Z,3.05
2018-06-12T16:05:40.193Z,2.50
2018-06-12T16:08:11.641Z,3.30
2018-06-12T16:10:43.132Z,2.87
2018-06-12T16:13:14.697Z,3.20
2018-06-12T16:15:45.958Z,2.12
2018-06-12T16:18:17.372Z,2.65
2018-06-12T16:20:48.659Z,2.02
2018-06-12T16:23:20.069Z,1.90
2018-06-12T16:25:51.332Z,2.12
2018-06-12T16:28:22.766Z,4.75
2018-06-12T16:30:54.758Z,2.17
2018-06-12T16:33:26.195Z,3.33
2018-06-12T16:35:58.125Z,2.95
2018-06-12T16:38:29.402Z,3.22
2018-06-12T16:41:00.745Z,5.83
2018-06-12T16:43:32.184Z,3.20
2018-06-12T16:46:03.558Z,4.15
2018-06-12T16:48:34.872Z,5.72
2018-06-12T16:51:06.365Z,5.22
2018-06-12T16:53:37.752Z,3.70
2018-06-12T16:56:09.104Z,3.15
2018-06-12T16:58:40.592Z,4.60
2018-06-12T17:01:11.480Z,4.03
2018-06-12T17:03:42.884Z,3.35
2018-06-12T17:06:14.798Z,3.25
2018-06-12T17:08:46.239Z,1.87
2018-06-12T17:11:17.517Z,3.50
2018-06-12T17:13:49.004Z,2.40
2018-06-12T17:16:20.851Z,3.02
2018-06-12T17:18:52.155Z,2.52
2018-06-12T17:21:23.409Z,3.02
2018-06-12T17:23:54.562Z,7.05
2018-06-12T17:26:25.946Z,3.02
2018-06-12T17:28:57.087Z,3.55
2018-06-12T17:31:28.496Z,3.83
2018-06-12T17:33:59.988Z,3.85
2018-06-12T17:36:31.226Z,2.90
2018-06-12T17:39:02.509Z,4.87
2018-06-12T17:41:33.594Z,8.00
2018-06-12T17:44:05.111Z,9.80
2018-06-12T17:46:36.643Z,4.35
2018-06-12T17:49:08.044Z,4.00
2018-06-12T17:51:39.775Z,3.35
2018-06-12T17:54:11.145Z,4.28
2018-06-12T17:56:42.523Z,4.00
2018-06-12T17:59:13.738Z,3.30
2018-06-12T18:01:45.201Z,3.33
2018-06-12T18:04:16.564Z,3.30
2018-06-12T18:06:47.993Z,2.72
2018-06-12T18:09:19.128Z,3.25
2018-06-12T18:11:50.855Z,2.83
2018-06-12T18:14:22.183Z,3.30
2018-06-12T18:16:53.641Z,3.15
2018-06-12T18:19:25.628Z,3.87
2018-06-12T18:21:57.200Z,3.75
2018-06-12T18:24:28.715Z,3.40
2018-06-12T18:27:00.012Z,4.03
2018-06-12T18:29:31.348Z,5.60
2018-06-12T18:32:02.803Z,4.42
2018-06-12T18:34:33.809Z,4.92
2018-06-12T18:37:05.360Z,10.45
2018-06-12T18:39:36.689Z,9.45
2018-06-12T18:42:08.077Z,6.22
2018-06-12T18:44:39.868Z,4.20
2018-06-12T18:47:11.415Z,5.87
2018-06-12T18:49:42.884Z,5.42
2018-06-12T18:52:15.238Z,18.30
2018-06-12T18:54:46.847Z,9.80
2018-06-12T18:57:18.460Z,8.25
2018-06-12T18:59:49.918Z,6.03
2018-06-12T19:02:21.905Z,7.97
2018-06-12T19:04:53.799Z,5.55
2018-06-12T19:07:25.304Z,5.42
2018-06-12T19:09:56.946Z,5.28
2018-06-12T19:12:28.897Z,5.92
2018-06-12T19:15:00.463Z,6.70
2018-06-12T19:17:32.067Z,4.72
2018-06-12T19:20:03.563Z,7.15
2018-06-12T19:22:35.523Z,6.40
2018-06-12T19:25:07.333Z,5.80
2018-06-12T19:27:39.143Z,5.80
2018-06-12T19:30:10.742Z,7.08
2018-06-12T19:32:42.216Z,7.10
2018-06-12T19:35:13.849Z,6.83
2018-06-12T19:37:45.120Z,7.12
2018-06-12T19:40:16.414Z,8.35
2018-06-12T19:42:48.039Z,10.13
2018-06-12T19:45:19.339Z,8.45
2018-06-12T19:47:50.791Z,7.72
2018-06-12T19:50:22.320Z,10.15
2018-06-12T19:52:54.257Z,9.83
2018-06-12T19:55:25.999Z,10.45
2018-06-12T19:57:57.223Z,11.22
2018-06-12T20:00:28.707Z,9.18
2018-06-12T20:03:00.249Z,7.08
2018-06-12T20:05:32.072Z,6.25
2018-06-12T20:08:03.574Z,7.35
2018-06-12T20:10:35.636Z,6.67
2018-06-12T20:13:07.368Z,7.28
2018-06-12T20:15:38.735Z,6.83
2018-06-12T20:18:09.992Z,19.65
2018-06-12T20:20:41.460Z,21.15
2018-06-12T20:23:13.168Z,6.72
2018-06-12T20:25:44.523Z,6.58
2018-06-12T20:28:16.748Z,6.20
2018-06-12T20:30:48.480Z,6.37
2018-06-12T20:33:19.995Z,6.00
2018-06-12T20:35:51.533Z,5.50
2018-06-12T20:38:22.908Z,7.25
2018-06-12T20:40:54.386Z,5.42
2018-06-12T20:43:25.591Z,6.85
2018-06-12T20:45:57.217Z,5.65
2018-06-12T20:48:28.988Z,6.05
2018-06-12T20:51:00.692Z,5.53
2018-06-12T20:53:32.709Z,6.92
2018-06-12T20:56:04.884Z,10.13
2018-06-12T20:58:36.972Z,25.68
2018-06-12T21:01:10.312Z,10.68
2018-06-12T21:03:43.155Z,10.63
2018-06-12T21:06:14.726Z,8.05
2018-06-12T21:08:46.631Z,7.78
2018-06-12T21:11:18.876Z,8.53
2018-06-12T21:13:50.448Z,8.58
2018-06-12T21:16:21.853Z,12.55
2018-06-12T21:18:53.279Z,14.43
2018-06-12T21:21:24.839Z,13.85
2018-06-12T21:23:56.784Z,10.88
2018-06-12T21:26:28.099Z,11.05
2018-06-12T21:28:59.788Z,9.55
2018-06-12T21:31:31.992Z,10.10
2018-06-12T21:34:05.732Z,10.40
2018-06-12T21:36:37.391Z,11.48
2018-06-12T21:39:09.651Z,11.40
2018-06-12T21:41:41.535Z,11.90
2018-06-12T21:44:13.116Z,11.73
2018-06-12T21:46:44.774Z,12.03
2018-06-12T21:49:18.055Z,13.05
2018-06-12T21:51:49.115Z,12.77
2018-06-12T21:54:20.365Z,9.87
2018-06-12T21:56:51.700Z,10.32
2018-06-12T21:59:23.042Z,10.33
2018-06-12T22:01:54.507Z,8.00
2018-06-12T22:04:26.560Z,9.53
2018-06-12T22:06:57.645Z,7.83
2018-06-12T22:09:28.844Z,7.73
2018-06-12T22:12:00.012Z,8.07
2018-06-12T22:14:31.450Z,7.13
2018-06-12T22:17:02.442Z,8.40
2018-06-12T22:19:34.440Z,9.37
2018-06-12T22:22:05.900Z,6.97
2018-06-12T22:24:37.359Z,6.50
2018-06-12T22:27:09.120Z,6.33
2018-06-12T22:29:40.617Z,6.17
2018-06-12T22:32:11.785Z,5.73
2018-06-12T22:34:43.048Z,6.95
2018-06-12T22:37:14.302Z,5.72
2018-06-12T22:39:45.607Z,5.90
2018-06-12T22:42:16.695Z,5.83
2018-06-12T22:44:47.847Z,5.85
2018-06-12T22:47:19.205Z,6.95
2018-06-12T22:49:51.074Z,6.83
2018-06-12T22:52:22.981Z,6.78
2018-06-12T22:54:54.840Z,7.50
2018-06-12T22:57:26.528Z,6.40
2018-06-12T22:59:57.982Z,6.83
2018-06-12T23:02:30.248Z,6.62
2018-06-12T23:05:01.808Z,6.45
2018-06-12T23:07:33.101Z,6.17
2018-06-12T23:10:04.756Z,6.47
2018-06-12T23:12:36.058Z,6.37
2018-06-12T23:15:07.579Z,6.12
2018-06-12T23:17:39.183Z,6.10
2018-06-12T23:20:26.529Z,6.22
2018-06-12T23:22:57.812Z,8.23
2018-06-12T23:25:29.338Z,6.58
2018-06-12T23:28:00.727Z,6.60
2018-06-12T23:30:31.950Z,6.03
2018-06-12T23:33:03.345Z,5.12
2018-06-12T23:35:34.600Z,5.65
2018-06-12T23:38:06.320Z,6.17
2018-06-12T23:40:37.756Z,6.05
2018-06-12T23:43:08.991Z,6.20
2018-06-12T23:45:40.107Z,7.47
2018-06-12T23:48:11.652Z,5.80
2018-06-12T23:50:42.911Z,5.72
2018-06-12T23:53:14.308Z,5.67
2018-06-12T23:55:45.808Z,7.00
2018-06-12T23:58:16.999Z,6.58
